createdAt,value
2018-03-06T16:13:05.633Z,27.4
2018-03-06T16:13:58.423Z,27.4
2018-03-06T16:14:47.939Z,27.4
2018-03-06T16:15:38.527Z,27.4
2018-03-06T16:16:28.944Z,27.3
2018-03-06T16:17:18.736Z,27.3
2018-03-06T16:18:09.812Z,27.3
2018-03-06T16:18:59.612Z,27.2
2018-03-06T16:19:49.345Z,27.2
2018-03-06T16:20:39.095Z,27.4
2018-03-06T16:21:29.807Z,27.6
2018-03-06T16:22:18.658Z,27.9
2018-03-06T16:23:09.880Z,28.2
2018-03-06T16:23:59.371Z,28.4
2018-03-06T16:24:48.804Z,28.6
2018-03-06T16:25:39.732Z,28.8
2018-03-06T16:26:28.680Z,29
2018-03-06T16:27:19.565Z,29.1
2018-03-06T16:28:07.304Z,29.3
2018-03-06T16:29:00.282Z,29.4
2018-03-06T16:29:50.099Z,29.5
2018-03-06T16:30:40.092Z,29.6
2018-03-06T16:31:30.485Z,29.5
2018-03-06T16:32:20.317Z,29.4
2018-03-06T16:33:10.056Z,29.4
2018-03-06T16:34:00.291Z,29.3
2018-03-06T16:34:50.487Z,29.2
2018-03-06T16:35:40.234Z,29.1
2018-03-06T16:36:30.791Z,28.9
2018-03-06T16:37:19.951Z,28.8
2018-03-06T16:38:09.461Z,28.7
2018-03-06T16:38:59.815Z,28.6
2018-03-06T16:39:51.299Z,28.4
2018-03-06T16:40:40.768Z,28.3
2018-03-06T16:41:31.412Z,28.3
2018-03-06T16:42:21.186Z,28.2
2018-03-06T16:43:11.306Z,28.1
2018-03-06T16:44:01.325Z,28
2018-03-06T16:44:51.073Z,27.9
2018-03-06T16:47:20.463Z,27.8
2018-03-06T16:48:11.377Z,27.7
2018-03-06T16:49:01.133Z,27.6
2018-03-06T16:49:50.883Z,27.6
2018-03-06T16:50:41.183Z,27.5
2018-03-06T16:51:31.236Z,27.4
2018-03-06T16:52:21.634Z,27.4
2018-03-06T16:53:11.064Z,27.4
2018-03-06T16:54:01.986Z,27.3
2018-03-06T16:54:52.031Z,27.3
2018-03-06T16:55:42.168Z,27.3
2018-03-06T16:56:31.904Z,27.3
2018-03-06T16:57:20.814Z,27.3
2018-03-06T16:58:12.568Z,27.4
2018-03-06T16:59:01.155Z,27.7
2018-03-06T16:59:52.095Z,27.9
2018-03-06T17:00:42.709Z,28.2
2018-03-06T17:01:32.793Z,28.4
2018-03-06T17:02:21.993Z,28.6
2018-03-06T17:03:12.953Z,28.8
2018-03-06T17:04:02.695Z,28.9
2018-03-06T17:04:53.634Z,29.1
2018-03-06T17:05:42.749Z,29.2
2018-03-06T17:06:32.547Z,29.3
2018-03-06T17:07:23.184Z,29.4
2018-03-06T17:08:12.932Z,29.5
2018-03-06T17:09:03.340Z,29.4
2018-03-06T17:09:52.807Z,29.4
2018-03-06T17:10:43.118Z,29.3
2018-03-06T17:11:32.887Z,29.3
2018-03-06T17:12:23.017Z,29.1
2018-03-06T17:13:12.511Z,29
2018-03-06T17:14:03.704Z,28.9
2018-03-06T17:14:53.686Z,28.8
2018-03-06T17:15:42.658Z,28.6
2018-03-06T17:16:33.233Z,28.4
2018-03-06T17:17:22.846Z,28.4
2018-03-06T17:18:13.354Z,28.3
2018-03-06T17:19:03.399Z,28.1
2018-03-06T17:19:53.780Z,28.1
2018-03-06T17:20:43.234Z,27.9
2018-03-06T17:21:33.877Z,27.9
2018-03-06T17:23:14.506Z,27.8
2018-03-06T17:24:03.792Z,27.6
2018-03-06T17:24:53.544Z,27.6
2018-03-06T17:25:44.439Z,27.5
2018-03-06T17:26:34.525Z,27.5
2018-03-06T17:27:23.766Z,27.4
2018-03-06T17:28:14.366Z,27.4
2018-03-06T17:29:03.612Z,27.3
2018-03-06T17:29:54.542Z,27.3
2018-03-06T17:30:44.804Z,27.3
2018-03-06T17:31:33.952Z,27.2
2018-03-06T17:32:22.339Z,27.3
2018-03-06T17:33:13.106Z,27.6
2018-03-06T17:34:53.013Z,28.1
2018-03-06T17:35:43.093Z,28.3
2018-03-06T17:36:32.531Z,28.4
2018-03-06T17:37:24.193Z,28.6
2018-03-06T17:38:13.381Z,28.8
2018-03-06T17:39:03.384Z,28.9
2018-03-06T17:39:54.013Z,29.1
2018-03-06T17:40:43.936Z,29.2
2018-03-06T17:41:32.893Z,29.3
2018-03-06T17:42:23.358Z,29.4
2018-03-06T17:43:13.876Z,29.4
2018-03-06T17:44:03.488Z,29.4
2018-03-06T17:44:52.785Z,29.3
2018-03-06T17:45:43.144Z,29.3
2018-03-06T17:46:33.410Z,29.1
2018-03-06T17:47:24.010Z,29.1
2018-03-06T17:48:14.005Z,28.9
2018-03-06T17:49:03.687Z,28.8
2018-03-06T17:49:53.748Z,28.7
2018-03-06T17:50:42.897Z,28.6
2018-03-06T17:51:33.986Z,28.4
2018-03-06T17:52:24.027Z,28.3
2018-03-06T17:53:13.877Z,28.2
2018-03-06T17:54:05.130Z,28.1
2018-03-06T17:54:56.183Z,28
2018-03-06T17:55:45.408Z,27.9
2018-03-06T17:57:26.092Z,28
2018-03-06T17:58:15.410Z,28.9
2018-03-06T17:59:05.962Z,29.6
2018-03-06T17:59:55.486Z,30.6
2018-03-06T18:00:44.987Z,32.6
2018-03-06T18:01:35.092Z,34.3
2018-03-06T18:02:24.869Z,33.1
2018-03-06T18:03:13.972Z,32.4
2018-03-06T18:04:04.869Z,32.2
2018-03-06T18:04:55.454Z,32.1
2018-03-06T18:05:44.816Z,32.1
2018-03-06T18:06:36.006Z,32.2
2018-03-06T18:07:26.959Z,32.1
2018-03-06T18:08:16.576Z,32.1
2018-03-06T18:09:05.817Z,32.1
2018-03-06T18:09:56.721Z,32
2018-03-06T18:10:47.091Z,31.9
2018-03-06T18:11:37.343Z,31.9
2018-03-06T18:12:26.799Z,31.7
2018-03-06T18:13:17.419Z,31.6
2018-03-06T18:14:07.559Z,31.5
2018-03-06T18:14:56.436Z,31.4
2018-03-06T18:15:46.523Z,31.3
2018-03-06T18:16:37.449Z,31.1
2018-03-06T18:17:27.766Z,31
2018-03-06T18:18:17.794Z,30.9
2018-03-06T18:19:07.846Z,30.8
2018-03-06T18:19:57.353Z,30.6
2018-03-06T18:20:47.675Z,30.4
2018-03-06T18:21:37.506Z,30.3
2018-03-06T18:22:28.423Z,30.2
2018-03-06T18:23:18.158Z,30.1
2018-03-06T18:24:08.525Z,30
2018-03-06T18:24:57.973Z,29.9
2018-03-06T18:25:48.055Z,29.8
2018-03-06T18:26:38.707Z,29.6
2018-03-06T18:27:28.762Z,29.6
2018-03-06T18:28:18.213Z,29.4
2018-03-06T18:29:07.434Z,29.3
2018-03-06T18:29:57.317Z,29.2
2018-03-06T18:30:48.382Z,29.1
2018-03-06T18:31:39.075Z,29
2018-03-06T18:32:28.372Z,28.9
2018-03-06T18:33:18.297Z,28.8
2018-03-06T18:34:08.985Z,27.9
2018-03-06T18:34:58.523Z,28.2
2018-03-06T18:35:48.188Z,28.6
2018-03-06T18:36:38.530Z,29.2
2018-03-06T18:37:27.879Z,30.3
2018-03-06T18:38:18.537Z,32.6
2018-03-06T18:39:08.467Z,33.8
2018-03-06T18:39:58.982Z,32.4
2018-03-06T18:40:48.716Z,31.8
2018-03-06T18:41:39.777Z,31.6
2018-03-06T18:42:29.479Z,31.6
2018-03-06T18:43:19.212Z,31.7
2018-03-06T18:44:08.994Z,31.8
2018-03-06T18:45:00.169Z,31.8
2018-03-06T18:45:48.792Z,31.8
2018-03-06T18:46:40.080Z,31.8
2018-03-06T18:47:29.093Z,31.7
2018-03-06T18:48:19.406Z,31.7
2018-03-06T18:49:10.219Z,31.6
2018-03-06T18:50:00.010Z,31.4
2018-03-06T18:50:49.745Z,31.3
2018-03-06T18:51:38.831Z,31.2
2018-03-06T18:52:29.370Z,31.1
2018-03-06T18:53:20.529Z,30.9
2018-03-06T18:54:09.997Z,30.8
2018-03-06T18:54:59.871Z,30.6
2018-03-06T18:55:49.927Z,30.5
2018-03-06T18:56:40.022Z,30.4
2018-03-06T18:57:30.006Z,30.2
2018-03-06T18:58:20.571Z,30.1
2018-03-06T18:59:10.880Z,29.9
2018-03-06T19:00:00.909Z,29.8
2018-03-06T19:00:50.770Z,29.7
2018-03-06T19:01:39.291Z,29.6
2018-03-06T19:02:29.393Z,29.4
2018-03-06T19:03:20.605Z,29.3
2018-03-06T19:04:10.947Z,29.2
2018-03-06T19:05:00.990Z,29.1
2018-03-06T19:05:50.823Z,28.9
2018-03-06T19:06:41.342Z,28.8
2018-03-06T19:07:30.678Z,28.7
2018-03-06T19:08:20.672Z,28.6
2018-03-06T19:09:11.044Z,28.5
2018-03-06T19:10:00.476Z,28.3
2018-03-06T19:10:50.835Z,27.4
2018-03-06T19:11:41.422Z,27.7
2018-03-06T19:12:31.234Z,28.1
2018-03-06T19:13:21.895Z,28.6
2018-03-06T19:14:11.048Z,29.5
2018-03-06T19:15:01.127Z,31.4
2018-03-06T19:15:51.030Z,33
2018-03-06T19:16:41.813Z,31.6
2018-03-06T19:17:31.550Z,30.8
2018-03-06T19:18:21.640Z,30.6
2018-03-06T19:19:12.300Z,30.6
2018-03-06T19:20:01.524Z,30.8
2018-03-06T19:20:51.834Z,30.9
2018-03-06T19:21:41.625Z,30.9
2018-03-06T19:22:32.249Z,31
2018-03-06T19:23:21.686Z,31.1
2018-03-06T19:24:12.044Z,31.1
2018-03-06T19:25:02.690Z,31
2018-03-06T19:25:51.899Z,30.9
2018-03-06T19:26:42.851Z,30.9
2018-03-06T19:27:32.567Z,30.8
2018-03-06T19:28:22.613Z,30.7
2018-03-06T19:29:13.014Z,30.6
2018-03-06T19:30:02.740Z,30.4
2018-03-06T19:30:52.479Z,30.3
2018-03-06T19:31:42.794Z,30.2
2018-03-06T19:32:32.279Z,30.1
2018-03-06T19:33:22.476Z,30
2018-03-06T19:34:13.025Z,29.9
2018-03-06T19:35:02.501Z,29.8
2018-03-06T19:35:52.382Z,29.6
2018-03-06T19:36:43.149Z,29.5
2018-03-06T19:37:33.538Z,29.4
2018-03-06T19:38:22.756Z,29.3
2018-03-06T19:39:13.579Z,29.1
2018-03-06T19:40:03.413Z,29
2018-03-06T19:40:53.171Z,28.9
2018-03-06T19:41:42.718Z,28.8
2018-03-06T19:42:33.417Z,28.6
2018-03-06T19:43:23.691Z,28.5
2018-03-06T19:44:13.252Z,28.4
2018-03-06T19:45:03.749Z,28.3
2018-03-06T19:45:53.338Z,27.9
2018-03-06T19:46:43.554Z,27.1
2018-03-06T19:47:32.318Z,27.3
2018-03-06T19:49:13.764Z,28.3
2018-03-06T19:50:03.618Z,28.9
2018-03-06T19:50:53.415Z,30.4
2018-03-06T19:51:43.273Z,33.1
2018-03-06T19:52:32.704Z,32.3
2018-03-06T19:53:23.470Z,31.2
2018-03-06T19:54:13.482Z,30.7
2018-03-06T19:55:03.482Z,30.6
2018-03-06T19:55:53.877Z,30.8
2018-03-06T19:56:44.433Z,30.9
2018-03-06T19:57:33.338Z,31
2018-03-06T19:58:23.919Z,31.1
2018-03-06T19:59:14.139Z,31.1
2018-03-06T20:00:04.027Z,31.1
2018-03-06T20:00:54.492Z,31.1
2018-03-06T20:01:44.137Z,31
2018-03-06T20:02:34.150Z,30.9
2018-03-06T20:03:24.592Z,30.9
2018-03-06T20:04:13.452Z,30.8
2018-03-06T20:05:04.365Z,30.7
2018-03-06T20:05:54.945Z,30.6
2018-03-06T20:06:44.367Z,30.4
2018-03-06T20:07:34.610Z,30.3
2018-03-06T20:08:25.572Z,30.2
2018-03-06T20:09:14.972Z,30.1
2018-03-06T20:10:05.652Z,29.9
2018-03-06T20:10:54.293Z,29.8
2018-03-06T20:11:45.384Z,29.7
2018-03-06T20:12:35.489Z,29.6
2018-03-06T20:13:25.569Z,29.4
2018-03-06T20:14:15.862Z,29.3
2018-03-06T20:15:05.692Z,29.1
2018-03-06T20:15:55.170Z,29
2018-03-06T20:16:45.529Z,28.9
2018-03-06T20:17:34.887Z,28.8
2018-03-06T20:18:25.912Z,28.7
2018-03-06T20:19:16.039Z,28.6
2018-03-06T20:20:06.208Z,28.4
2018-03-06T20:20:55.686Z,28.4
2018-03-06T20:21:46.499Z,28.2
2018-03-06T20:22:36.695Z,27.1
2018-03-06T20:23:26.464Z,27
2018-03-06T20:24:16.571Z,27.6
2018-03-06T20:25:05.831Z,27.9
2018-03-06T20:25:56.936Z,28.4
2018-03-06T20:26:46.486Z,29.4
2018-03-06T20:27:36.765Z,31.5
2018-03-06T20:28:27.146Z,32.6
2018-03-06T20:29:16.636Z,31.1
2018-03-06T20:30:07.163Z,30.4
2018-03-06T20:30:56.161Z,30.2
2018-03-06T20:31:45.829Z,30.3
2018-03-06T20:32:36.826Z,30.4
2018-03-06T20:33:26.629Z,30.6
2018-03-06T20:34:17.305Z,30.7
2018-03-06T20:35:06.136Z,30.8
2018-03-06T20:35:57.385Z,30.8
2018-03-06T20:36:46.821Z,30.8
2018-03-06T20:37:37.243Z,30.8
2018-03-06T20:38:26.826Z,30.7
2018-03-06T20:39:16.815Z,30.6
2018-03-06T20:40:07.435Z,30.6
2018-03-06T20:40:57.035Z,30.4
2018-03-06T20:41:47.485Z,30.4
2018-03-06T20:42:38.180Z,30.3
2018-03-06T20:43:27.990Z,30.1
2018-03-06T20:44:17.639Z,30.1
2018-03-06T20:45:07.445Z,29.9
2018-03-06T20:45:57.674Z,29.8
2018-03-06T20:46:47.170Z,29.7
2018-03-06T20:47:37.555Z,29.6
2018-03-06T20:48:28.559Z,29.4
2018-03-06T20:49:17.712Z,29.3
2018-03-06T20:50:07.541Z,29.2
2018-03-06T20:50:56.650Z,29.1
2018-03-06T20:51:48.237Z,28.9
2018-03-06T20:52:38.625Z,28.9
2018-03-06T20:53:27.328Z,28.8
2018-03-06T20:54:17.353Z,28.6
2018-03-06T20:55:08.106Z,28.5
2018-03-06T20:55:57.946Z,28.4
2018-03-06T20:56:48.745Z,28.3
2018-03-06T20:57:38.561Z,28.2
2018-03-06T20:58:28.533Z,27.4
2018-03-06T20:59:18.270Z,26.7
2018-03-06T21:00:08.711Z,27.1
2018-03-06T21:00:59.064Z,27.6
2018-03-06T21:01:48.767Z,27.9
2018-03-06T21:02:38.293Z,28.4
2018-03-06T21:03:29.771Z,29.8
2018-03-06T21:04:18.669Z,32.1
2018-03-06T21:05:08.493Z,34.8
2018-03-06T21:05:57.304Z,34.3
2018-03-06T21:06:47.811Z,33.2
2018-03-06T21:07:38.378Z,32.8
2018-03-06T21:08:29.061Z,32.6
2018-03-06T21:09:17.819Z,32.6
2018-03-06T21:10:08.363Z,32.6
2018-03-06T21:10:58.316Z,32.6
2018-03-06T21:11:47.446Z,32.6
2018-03-06T21:12:38.148Z,32.6
2018-03-06T21:13:28.154Z,32.4
2018-03-06T21:14:18.053Z,32.4
2018-03-06T21:15:07.350Z,32.3
2018-03-06T21:15:58.043Z,32.1
2018-03-06T21:16:47.815Z,31.9
2018-03-06T21:17:38.572Z,31.8
2018-03-06T21:18:28.996Z,31.6
2018-03-06T21:19:19.283Z,31.4
2018-03-06T21:20:09.592Z,31.3
2018-03-06T21:20:59.302Z,31.1
2018-03-06T21:21:49.646Z,30.9
2018-03-06T21:22:39.133Z,30.8
2018-03-06T21:23:30.046Z,30.6
2018-03-06T21:24:19.856Z,30.5
2018-03-06T21:25:11.251Z,30.3
2018-03-06T21:25:59.605Z,30.2
2018-03-06T21:26:50.780Z,30.1
2018-03-06T21:27:40.028Z,29.9
2018-03-06T21:28:30.647Z,29.8
2018-03-06T21:29:19.443Z,29.6
2018-03-06T21:30:10.135Z,28.3
2018-03-06T21:30:59.826Z,27.8
2018-03-06T21:32:40.349Z,27.9
2018-03-06T21:33:29.182Z,28.5
2018-03-06T21:34:19.342Z,29.7
2018-03-06T21:35:10.495Z,32
2018-03-06T21:36:00.523Z,34.8
2018-03-06T21:36:51.916Z,34.2
2018-03-06T21:37:40.239Z,33.1
2018-03-06T21:38:31.909Z,32.6
2018-03-06T21:39:21.055Z,32.5
2018-03-06T21:40:09.918Z,32.5
2018-03-06T21:41:00.897Z,32.5
2018-03-06T21:41:49.863Z,32.5
2018-03-06T21:42:40.047Z,32.5
2018-03-06T21:43:29.485Z,32.5
2018-03-06T21:44:21.338Z,32.4
2018-03-06T21:45:12.438Z,32.3
2018-03-06T21:46:01.161Z,32.2
2018-03-06T21:46:51.464Z,32.1
2018-03-06T21:47:42.394Z,31.9
2018-03-06T21:48:32.179Z,31.8
2018-03-06T21:49:22.271Z,31.6
2018-03-06T21:50:12.052Z,31.4
2018-03-06T21:51:01.860Z,31.3
2018-03-06T21:51:52.694Z,31.1
2018-03-06T21:52:42.219Z,31
2018-03-06T21:53:32.805Z,30.8
2018-03-06T21:54:22.553Z,30.6
2018-03-06T21:55:12.679Z,30.5
2018-03-06T21:56:02.150Z,30.3
2018-03-06T21:56:53.463Z,30.2
2018-03-06T21:57:42.818Z,30.1
2018-03-06T21:58:33.153Z,29.9
2018-03-06T21:59:22.850Z,29.8
2018-03-06T22:00:13.248Z,29.5
2018-03-06T22:01:02.191Z,28
2018-03-06T22:01:53.138Z,27.6
2018-03-06T22:02:43.028Z,27.8
2018-03-06T22:03:33.207Z,27.9
2018-03-06T22:04:22.427Z,28.6
2018-03-06T22:05:12.523Z,30.2
2018-03-06T22:06:03.124Z,32.9
2018-03-06T22:06:53.493Z,35.1
2018-03-06T22:07:42.951Z,33.8
2018-03-06T22:08:33.283Z,32.9
2018-03-06T22:09:23.459Z,32.6
2018-03-06T22:10:12.839Z,32.5
2018-03-06T22:11:03.780Z,32.5
2018-03-06T22:11:53.565Z,32.5
2018-03-06T22:12:43.897Z,32.6
2018-03-06T22:13:32.828Z,32.5
2018-03-06T22:14:23.648Z,32.5
2018-03-06T22:15:13.498Z,32.4
2018-03-06T22:16:03.621Z,32.3
2018-03-06T22:16:53.905Z,32.2
2018-03-06T22:17:43.900Z,32.1
2018-03-06T22:18:34.615Z,31.9
2018-03-06T22:19:23.532Z,31.8
2018-03-06T22:20:13.344Z,31.6
2018-03-06T22:21:03.995Z,31.4
2018-03-06T22:21:54.775Z,31.3
2018-03-06T22:22:43.932Z,31.1
2018-03-06T22:23:33.497Z,30.9
2018-03-06T22:24:23.505Z,30.8
2018-03-06T22:25:14.749Z,30.6
2018-03-06T22:26:04.805Z,30.4
2018-03-06T22:26:54.542Z,30.3
2018-03-06T22:27:44.594Z,30.2
2018-03-06T22:28:34.467Z,30.1
2018-03-06T22:29:25.000Z,29.9
2018-03-06T22:30:15.070Z,29.8
2018-03-06T22:31:04.555Z,28.8
2018-03-06T22:31:55.151Z,27.6
2018-03-06T22:32:44.659Z,27.6
2018-03-06T22:33:35.243Z,27.7
2018-03-06T22:34:24.545Z,28.3
2018-03-06T22:35:14.894Z,29.4
2018-03-06T22:36:04.724Z,32
2018-03-06T22:36:54.465Z,34.8
2018-03-06T22:37:45.586Z,34.3
2018-03-06T22:38:36.146Z,33.1
2018-03-06T22:39:25.446Z,32.6
2018-03-06T22:40:16.047Z,32.5
2018-03-06T22:41:04.959Z,32.5
2018-03-06T22:41:55.863Z,32.6
2018-03-06T22:42:46.174Z,32.6
2018-03-06T22:43:35.754Z,32.6
2018-03-06T22:44:25.820Z,32.6
2018-03-06T22:45:15.862Z,32.4
2018-03-06T22:46:06.132Z,32.4
2018-03-06T22:46:56.240Z,32.3
2018-03-06T22:47:46.541Z,32.1
2018-03-06T22:48:35.561Z,31.9
2018-03-06T22:49:26.451Z,31.8
2018-03-06T22:50:16.386Z,31.7
2018-03-06T22:51:05.936Z,31.5
2018-03-06T22:51:56.038Z,31.3
2018-03-06T22:52:46.313Z,31.2
2018-03-06T22:53:36.079Z,31
2018-03-06T22:54:26.251Z,30.9
2018-03-06T22:55:16.236Z,30.7
2018-03-06T22:56:06.876Z,30.6
2018-03-06T22:56:55.483Z,30.4
2018-03-06T22:57:47.228Z,30.3
2018-03-06T22:58:36.695Z,30.1
2018-03-06T22:59:26.537Z,29.9
2018-03-06T23:00:16.870Z,29.8
2018-03-06T23:01:06.616Z,29.4
2018-03-06T23:01:56.937Z,27.9
2018-03-06T23:02:47.915Z,27.6
2018-03-06T23:03:37.383Z,27.6
2018-03-06T23:04:27.405Z,27.9
2018-03-06T23:05:17.479Z,28.6
2018-03-06T23:06:06.531Z,30.5
2018-03-06T23:06:57.549Z,33.3
2018-03-06T23:07:46.911Z,35
2018-03-06T23:08:37.140Z,33.6
2018-03-06T23:09:26.987Z,32.9
2018-03-06T23:10:17.837Z,32.6
2018-03-06T23:11:07.869Z,32.6
2018-03-06T23:11:57.657Z,32.6
2018-03-06T23:12:47.694Z,32.6
2018-03-06T23:13:38.159Z,32.6
2018-03-06T23:14:27.698Z,32.6
2018-03-06T23:15:18.407Z,32.5
2018-03-06T23:16:08.248Z,32.4
2018-03-06T23:16:57.715Z,32.3
2018-03-06T23:17:48.047Z,32.2
2018-03-06T23:18:38.096Z,32
2018-03-06T23:19:28.158Z,31.9
2018-03-06T23:20:17.924Z,31.7
2018-03-06T23:21:08.614Z,31.6
2018-03-06T23:21:57.525Z,31.4
2018-03-06T23:22:47.889Z,31.3
2018-03-06T23:23:37.851Z,31.1
2018-03-06T23:24:28.815Z,30.9
2018-03-06T23:25:18.561Z,30.8
2018-03-06T23:26:07.197Z,30.6
2018-03-06T23:26:58.168Z,30.4
2018-03-06T23:27:48.453Z,30.3
2018-03-06T23:28:38.804Z,30.1
2018-03-06T23:29:28.911Z,30
2018-03-06T23:30:19.187Z,29.9
2018-03-06T23:31:08.714Z,29.8
2018-03-06T23:31:58.700Z,28.8
2018-03-06T23:32:49.626Z,27.5
2018-03-06T23:33:38.705Z,27.6
2018-03-06T23:34:29.481Z,27.6
2018-03-06T23:35:19.510Z,28
2018-03-06T23:36:09.631Z,29.1
2018-03-06T23:36:59.362Z,31.6
2018-03-06T23:37:49.728Z,34.5
2018-03-06T23:38:38.482Z,34.8
2018-03-06T23:39:28.735Z,33.6
2018-03-06T23:40:18.883Z,32.9
2018-03-06T23:41:08.880Z,32.8
2018-03-06T23:41:59.325Z,32.8
2018-03-06T23:42:50.358Z,32.8
2018-03-06T23:43:39.328Z,32.8
2018-03-06T23:44:29.633Z,32.8
2018-03-06T23:45:19.972Z,32.8
2018-03-06T23:46:08.905Z,32.6
2018-03-06T23:46:58.997Z,32.6
2018-03-06T23:47:50.107Z,32.4
2018-03-06T23:48:39.885Z,32.3
2018-03-06T23:49:30.119Z,32.1
2018-03-06T23:50:20.323Z,31.9
2018-03-06T23:51:09.086Z,31.8
2018-03-06T23:51:59.835Z,31.6
2018-03-06T23:52:49.664Z,31.4
2018-03-06T23:53:40.571Z,31.3
2018-03-06T23:54:29.624Z,31.1
2018-03-06T23:55:19.582Z,30.9
2018-03-06T23:56:09.625Z,30.8
2018-03-06T23:57:00.025Z,30.6
2018-03-06T23:57:50.079Z,30.4
2018-03-06T23:58:39.331Z,30.3
2018-03-06T23:59:30.672Z,30.2
